createdAt,value
2019-05-20T00:01:25.615Z,19.50
2019-05-20T00:03:54.447Z,19.50
2019-05-20T00:06:23.284Z,19.50
2019-05-20T00:08:51.972Z,19.60
2019-05-20T00:11:20.782Z,19.50
2019-05-20T00:13:49.607Z,19.50
2019-05-20T00:16:18.444Z,19.50
2019-05-20T00:18:47.199Z,19.50
2019-05-20T00:21:16.069Z,19.40
2019-05-20T00:23:44.836Z,19.40
2019-05-20T00:26:14.092Z,19.40
2019-05-20T00:28:42.859Z,19.40
2019-05-20T00:31:11.675Z,19.40
2019-05-20T00:33:40.499Z,19.40
2019-05-20T00:36:09.347Z,19.40
2019-05-20T00:38:39.067Z,19.30
2019-05-20T00:41:08.027Z,19.40
2019-05-20T00:43:36.812Z,19.30
2019-05-20T00:46:05.612Z,19.30
2019-05-20T00:48:34.444Z,19.30
2019-05-20T00:51:03.297Z,19.30
2019-05-20T00:53:32.124Z,19.30
2019-05-20T00:56:00.980Z,19.30
2019-05-20T00:58:29.821Z,19.30
2019-05-20T01:00:58.662Z,19.30
2019-05-20T01:03:27.491Z,19.30
2019-05-20T01:05:56.344Z,19.30
2019-05-20T01:08:25.163Z,19.30
2019-05-20T01:10:54.027Z,19.30
2019-05-20T01:13:22.891Z,19.30
2019-05-20T01:15:51.704Z,19.30
2019-05-20T01:18:20.481Z,19.40
2019-05-20T01:20:49.733Z,19.50
2019-05-20T01:23:18.568Z,19.50
2019-05-20T01:25:47.408Z,19.60
2019-05-20T01:28:16.256Z,19.60
2019-05-20T01:30:45.008Z,19.60
2019-05-20T01:33:14.538Z,19.60
2019-05-20T01:35:43.493Z,19.60
2019-05-20T01:38:12.346Z,19.60
2019-05-20T01:40:41.179Z,19.60
2019-05-20T01:43:10.035Z,19.60
2019-05-20T01:45:38.855Z,19.50
2019-05-20T01:48:07.695Z,19.50
2019-05-20T01:50:36.385Z,19.50
2019-05-20T01:53:05.257Z,19.50
2019-05-20T01:55:34.024Z,19.50
2019-05-20T01:58:02.902Z,19.50
2019-05-20T02:00:31.676Z,19.50
2019-05-20T02:03:00.505Z,19.50
2019-05-20T02:05:29.378Z,19.40
2019-05-20T02:07:58.607Z,19.30
2019-05-20T02:10:27.454Z,19.30
2019-05-20T02:12:57.870Z,19.40
2019-05-20T02:15:37.542Z,19.30
2019-05-20T02:18:06.406Z,19.30
2019-05-20T02:20:35.210Z,19.20
2019-05-20T02:23:16.971Z,19.20
2019-05-20T02:25:47.285Z,19.10
2019-05-20T02:28:16.123Z,19.10
2019-05-20T02:30:44.946Z,19.10
2019-05-20T02:33:13.816Z,19.10
2019-05-20T02:35:42.645Z,19.00
2019-05-20T02:38:11.493Z,19.00
2019-05-20T02:40:40.310Z,19.10
2019-05-20T02:43:09.388Z,19.00
2019-05-20T02:45:38.205Z,18.90
2019-05-20T02:48:07.148Z,19.00
2019-05-20T02:50:35.927Z,19.10
2019-05-20T02:53:04.712Z,19.00
2019-05-20T02:55:33.540Z,18.90
2019-05-20T02:58:02.281Z,18.90
2019-05-20T03:00:31.079Z,18.80
2019-05-20T03:02:59.935Z,18.70
2019-05-20T03:05:29.352Z,18.50
2019-05-20T03:07:58.192Z,18.50
2019-05-20T03:10:27.053Z,18.30
2019-05-20T03:12:55.864Z,18.20
2019-05-20T03:15:24.703Z,18.00
2019-05-20T03:17:53.544Z,17.80
2019-05-20T03:20:22.393Z,17.80
2019-05-20T03:22:51.212Z,17.70
2019-05-20T03:25:20.060Z,17.50
2019-05-20T03:27:48.926Z,17.40
2019-05-20T03:30:17.910Z,17.30
2019-05-20T03:32:46.723Z,17.20
2019-05-20T03:35:15.575Z,17.10
2019-05-20T03:37:44.443Z,17.10
2019-05-20T03:40:13.587Z,17.00
2019-05-20T03:42:42.407Z,17.10
2019-05-20T03:45:12.966Z,17.00
2019-05-20T03:47:41.811Z,17.00
2019-05-20T03:50:10.724Z,17.00
2019-05-20T03:52:39.578Z,17.00
2019-05-20T03:55:08.412Z,16.90
2019-05-20T03:57:37.242Z,16.90
2019-05-20T04:00:07.391Z,16.90
2019-05-20T04:02:36.232Z,17.00
2019-05-20T04:05:05.400Z,17.10
2019-05-20T04:07:34.251Z,17.10
2019-05-20T04:10:03.211Z,17.10
2019-05-20T04:12:32.048Z,17.20
2019-05-20T04:15:00.870Z,17.30
2019-05-20T04:17:30.945Z,17.50
2019-05-20T04:19:59.697Z,17.70
2019-05-20T04:22:28.532Z,17.80
2019-05-20T04:24:57.365Z,17.90
2019-05-20T04:27:26.205Z,17.90
2019-05-20T04:29:55.045Z,17.90
2019-05-20T04:32:23.961Z,17.90
2019-05-20T04:34:52.845Z,17.80
2019-05-20T04:37:21.694Z,17.60
2019-05-20T04:39:50.492Z,17.10
2019-05-20T04:42:19.341Z,17.10
2019-05-20T04:44:48.194Z,16.80
2019-05-20T04:47:17.001Z,16.70
2019-05-20T04:49:45.838Z,16.60
2019-05-20T04:52:14.679Z,16.50
2019-05-20T04:54:43.477Z,16.40
2019-05-20T04:57:12.316Z,16.50
2019-05-20T04:59:41.160Z,16.60
2019-05-20T05:02:09.921Z,16.60
2019-05-20T05:04:41.069Z,16.80
2019-05-20T05:07:09.948Z,16.90
2019-05-20T05:09:38.787Z,17.00
2019-05-20T05:12:07.629Z,17.10
2019-05-20T05:14:36.556Z,17.20
2019-05-20T05:17:05.487Z,17.20
2019-05-20T05:19:34.395Z,17.20
2019-05-20T05:22:03.242Z,17.30
2019-05-20T05:24:32.064Z,17.40
2019-05-20T05:27:00.852Z,17.50
2019-05-20T05:29:29.700Z,17.70
2019-05-20T05:31:58.512Z,18.00
2019-05-20T05:34:27.365Z,18.20
2019-05-20T05:36:56.219Z,18.40
2019-05-20T05:39:25.085Z,18.60
2019-05-20T05:41:54.763Z,18.70
2019-05-20T05:44:23.523Z,18.80
2019-05-20T05:46:52.307Z,19.00
2019-05-20T05:49:21.123Z,19.20
2019-05-20T05:51:49.948Z,19.40
2019-05-20T05:54:18.795Z,19.50
2019-05-20T05:56:47.650Z,19.60
2019-05-20T05:59:16.411Z,19.80
2019-05-20T06:01:45.298Z,19.70
2019-05-20T06:04:14.052Z,19.70
2019-05-20T06:06:42.818Z,19.60
2019-05-20T06:09:11.648Z,19.40
2019-05-20T06:11:42.077Z,19.30
2019-05-20T06:14:10.920Z,19.30
2019-05-20T06:16:39.647Z,19.20
2019-05-20T06:19:08.473Z,19.30
2019-05-20T06:21:37.283Z,19.30
2019-05-20T06:24:06.123Z,19.40
2019-05-20T06:26:34.962Z,19.40
2019-05-20T06:29:03.890Z,19.40
2019-05-20T06:31:32.740Z,19.60
2019-05-20T06:34:01.510Z,19.90
2019-05-20T06:36:30.391Z,20.10
2019-05-20T06:39:12.017Z,20.30
2019-05-20T06:41:41.594Z,20.30
2019-05-20T06:44:10.481Z,20.20
2019-05-20T06:46:39.270Z,20.40
2019-05-20T06:49:08.118Z,20.50
2019-05-20T06:51:36.879Z,20.60
2019-05-20T06:54:05.678Z,20.60
2019-05-20T06:56:34.521Z,20.60
2019-05-20T06:59:03.435Z,20.70
2019-05-20T07:01:32.508Z,20.90
2019-05-20T07:04:01.337Z,21.10
2019-05-20T07:06:44.626Z,21.10
2019-05-20T07:09:00.670Z,21.10
2019-05-20T07:11:29.554Z,21.00
2019-05-20T07:13:58.369Z,20.90
2019-05-20T07:16:27.294Z,20.80
2019-05-20T07:18:56.135Z,20.80
2019-05-20T07:21:25.031Z,20.90
2019-05-20T07:23:53.773Z,21.00
2019-05-20T07:26:22.636Z,21.20
2019-05-20T07:28:51.458Z,21.40
2019-05-20T07:31:20.330Z,21.90
2019-05-20T07:33:49.832Z,22.50
2019-05-20T07:36:18.677Z,23.30
2019-05-20T07:38:47.518Z,23.90
2019-05-20T07:41:16.354Z,23.90
2019-05-20T07:43:45.173Z,23.80
2019-05-20T07:46:14.158Z,23.60
2019-05-20T07:48:43.501Z,23.60
2019-05-20T07:51:13.442Z,23.70
2019-05-20T07:53:42.794Z,23.50
2019-05-20T07:56:20.441Z,23.50
2019-05-20T07:58:52.239Z,23.60
2019-05-20T08:01:21.060Z,23.70
2019-05-20T08:03:49.914Z,23.80
2019-05-20T08:06:18.733Z,23.90
2019-05-20T08:08:47.579Z,23.90
2019-05-20T08:11:16.395Z,23.90
2019-05-20T08:13:45.225Z,23.90
2019-05-20T08:16:14.091Z,24.10
2019-05-20T08:18:42.940Z,24.40
2019-05-20T08:21:11.779Z,24.90
2019-05-20T08:23:40.619Z,25.20
2019-05-20T08:26:09.443Z,25.50
2019-05-20T08:28:38.261Z,25.30
2019-05-20T08:31:07.108Z,25.40
2019-05-20T08:33:36.016Z,25.10
2019-05-20T08:36:05.045Z,25.10
2019-05-20T08:38:33.897Z,25.10
2019-05-20T08:41:02.725Z,25.30
2019-05-20T08:43:31.581Z,25.40
2019-05-20T08:46:00.279Z,25.80
2019-05-20T08:48:29.245Z,26.10
2019-05-20T08:50:58.269Z,26.50
2019-05-20T08:53:27.132Z,26.70
2019-05-20T08:56:04.840Z,26.60
2019-05-20T08:58:33.732Z,26.50
2019-05-20T09:01:02.592Z,27.20
2019-05-20T09:03:31.428Z,29.00
2019-05-20T09:06:00.297Z,30.50
2019-05-20T09:08:29.169Z,31.80
2019-05-20T09:10:57.997Z,32.50
2019-05-20T09:13:26.948Z,32.10
2019-05-20T09:15:55.785Z,31.30
2019-05-20T09:18:24.619Z,30.00
2019-05-20T09:20:53.479Z,28.90
2019-05-20T09:23:22.761Z,28.10
2019-05-20T09:25:51.597Z,27.70
2019-05-20T09:28:20.368Z,27.60
2019-05-20T09:30:49.410Z,27.70
2019-05-20T09:33:18.156Z,28.40
2019-05-20T09:35:47.064Z,29.70
2019-05-20T09:38:20.918Z,29.10
2019-05-20T09:40:48.508Z,28.40
2019-05-20T09:43:17.452Z,27.80
2019-05-20T09:45:46.316Z,28.00
2019-05-20T09:48:15.163Z,29.40
2019-05-20T09:50:44.004Z,31.00
2019-05-20T09:53:13.095Z,32.10
2019-05-20T09:55:41.897Z,32.20
2019-05-20T09:58:10.748Z,32.70
2019-05-20T10:00:39.563Z,33.30
2019-05-20T10:03:08.420Z,33.60
2019-05-20T10:05:37.846Z,34.50
2019-05-20T10:08:06.902Z,34.30
2019-05-20T10:10:35.774Z,34.20
2019-05-20T10:13:04.850Z,34.20
2019-05-20T10:15:35.120Z,33.70
2019-05-20T10:18:03.994Z,34.10
2019-05-20T10:20:32.812Z,35.50
2019-05-20T10:23:01.657Z,36.10
2019-05-20T10:25:30.487Z,35.40
2019-05-20T10:27:59.386Z,35.40
2019-05-20T10:30:28.139Z,35.60
2019-05-20T10:32:56.999Z,35.80
2019-05-20T10:35:25.848Z,34.50
2019-05-20T10:37:55.646Z,33.20
2019-05-20T10:40:24.489Z,32.50
2019-05-20T10:42:53.330Z,32.30
2019-05-20T10:45:22.217Z,32.80
2019-05-20T10:47:51.064Z,34.20
2019-05-20T10:50:19.993Z,35.30
2019-05-20T10:52:48.760Z,34.80
2019-05-20T10:55:18.473Z,34.50
2019-05-20T10:57:47.405Z,34.40
2019-05-20T11:00:16.869Z,35.10
2019-05-20T11:02:45.706Z,35.30
2019-05-20T11:05:14.739Z,35.00
2019-05-20T11:07:44.789Z,35.60
2019-05-20T11:10:13.834Z,35.90
2019-05-20T11:12:42.710Z,35.70
2019-05-20T11:15:13.893Z,36.30
2019-05-20T11:17:42.383Z,35.90
2019-05-20T11:20:11.499Z,36.40
2019-05-20T11:22:40.482Z,36.40
2019-05-20T11:25:09.930Z,36.20
2019-05-20T11:27:38.693Z,35.90
2019-05-20T11:30:08.455Z,35.60
2019-05-20T11:32:37.224Z,35.20
2019-05-20T11:35:07.451Z,34.00
2019-05-20T11:37:36.263Z,32.30
2019-05-20T11:40:09.405Z,31.10
2019-05-20T11:42:38.519Z,31.10
2019-05-20T11:45:09.142Z,30.70
2019-05-20T11:47:37.967Z,30.40
2019-05-20T11:50:09.023Z,30.10
2019-05-20T11:52:37.872Z,29.90
2019-05-20T11:55:08.311Z,29.70
2019-05-20T11:57:37.150Z,29.60
2019-05-20T12:00:10.210Z,29.50
2019-05-20T12:02:39.052Z,29.90
2019-05-20T12:05:09.563Z,30.20
2019-05-20T12:07:38.393Z,30.60
2019-05-20T12:10:08.842Z,30.40
2019-05-20T12:12:38.183Z,30.50
2019-05-20T12:15:08.768Z,31.20
2019-05-20T12:17:37.710Z,32.70
2019-05-20T12:20:10.458Z,34.50
2019-05-20T12:22:38.839Z,34.90
2019-05-20T12:25:08.140Z,35.90
2019-05-20T12:27:37.009Z,36.30
2019-05-20T12:30:06.905Z,38.10
2019-05-20T12:32:35.749Z,38.40
2019-05-20T12:35:06.966Z,37.60
2019-05-20T12:37:37.284Z,35.50
2019-05-20T12:40:08.486Z,33.80
2019-05-20T12:42:38.164Z,32.50
2019-05-20T12:45:09.190Z,31.70
2019-05-20T12:47:38.124Z,31.00
2019-05-20T12:50:07.827Z,30.40
2019-05-20T12:52:36.687Z,30.10
2019-05-20T12:55:09.506Z,30.30
2019-05-20T12:57:37.310Z,30.40
2019-05-20T13:00:11.992Z,30.50
2019-05-20T13:02:43.621Z,30.30
2019-05-20T13:05:13.035Z,30.00
2019-05-20T13:07:41.891Z,30.20
2019-05-20T13:10:27.823Z,30.20
2019-05-20T13:12:42.000Z,29.70
2019-05-20T13:15:11.800Z,29.70
2019-05-20T13:17:44.207Z,29.50
2019-05-20T13:20:11.278Z,29.50
2019-05-20T13:22:40.120Z,29.40
2019-05-20T13:25:09.692Z,29.60
2019-05-20T13:27:38.472Z,29.80
2019-05-20T13:30:08.752Z,30.10
2019-05-20T13:32:37.575Z,31.10
2019-05-20T13:35:08.273Z,32.50
2019-05-20T13:37:37.186Z,34.00
2019-05-20T13:40:07.067Z,35.10
2019-05-20T13:42:35.879Z,35.40
2019-05-20T13:45:06.704Z,35.60
2019-05-20T13:47:37.071Z,35.90
2019-05-20T13:50:09.513Z,36.10
2019-05-20T13:52:38.329Z,36.00
2019-05-20T13:55:07.264Z,35.10
2019-05-20T13:57:36.154Z,34.60
2019-05-20T14:00:07.609Z,34.00
2019-05-20T14:02:36.483Z,33.60
2019-05-20T14:05:06.232Z,33.90
2019-05-20T14:07:35.076Z,34.20
2019-05-20T14:10:05.835Z,33.60
2019-05-20T14:12:34.693Z,32.80
2019-05-20T14:15:03.984Z,31.80
2019-05-20T14:17:32.889Z,30.90
2019-05-20T14:20:01.706Z,30.40
2019-05-20T14:22:30.632Z,30.50
2019-05-20T14:24:59.548Z,30.90
2019-05-20T14:27:28.818Z,31.10
2019-05-20T14:29:57.639Z,31.20
2019-05-20T14:32:26.468Z,31.10
2019-05-20T14:34:55.296Z,30.80
2019-05-20T14:37:24.154Z,30.80
2019-05-20T14:39:53.016Z,30.60
2019-05-20T14:42:25.580Z,30.60
2019-05-20T14:44:53.133Z,30.60
2019-05-20T14:47:21.963Z,30.40
2019-05-20T14:49:50.876Z,29.80
2019-05-20T14:52:19.742Z,29.80
2019-05-20T14:54:48.597Z,29.80
2019-05-20T14:57:17.523Z,29.40
2019-05-20T14:59:46.297Z,29.40
2019-05-20T15:02:15.193Z,29.80
2019-05-20T15:04:43.970Z,30.50
2019-05-20T15:07:12.791Z,31.10
2019-05-20T15:09:41.651Z,31.60
2019-05-20T15:12:10.475Z,31.00
2019-05-20T15:14:42.427Z,31.00
2019-05-20T15:17:09.859Z,30.20
2019-05-20T15:19:38.677Z,30.00
2019-05-20T15:22:07.544Z,30.10
2019-05-20T15:24:36.391Z,30.50
2019-05-20T15:27:05.358Z,30.30
2019-05-20T15:29:34.214Z,30.20
2019-05-20T15:32:03.137Z,29.90
2019-05-20T15:34:31.899Z,29.70
2019-05-20T15:37:00.796Z,29.60
2019-05-20T15:39:29.628Z,29.80
2019-05-20T15:41:58.459Z,30.40
2019-05-20T15:44:27.363Z,31.00
2019-05-20T15:46:56.210Z,31.20
2019-05-20T15:49:25.675Z,30.80
2019-05-20T15:51:54.570Z,30.20
2019-05-20T15:54:23.450Z,30.00
2019-05-20T15:56:52.323Z,29.90
2019-05-20T15:59:22.665Z,30.00
2019-05-20T16:01:51.571Z,30.00
2019-05-20T16:04:23.361Z,29.80
2019-05-20T16:06:52.190Z,29.80
2019-05-20T16:09:21.141Z,29.70
2019-05-20T16:11:52.990Z,29.80
2019-05-20T16:14:21.907Z,29.40
2019-05-20T16:16:50.790Z,29.40
2019-05-20T16:19:19.633Z,29.40
2019-05-20T16:21:48.523Z,29.50
2019-05-20T16:26:45.801Z,29.50
2019-05-20T16:29:17.654Z,29.30
2019-05-20T16:31:45.430Z,29.20
2019-05-20T16:34:14.201Z,29.20
2019-05-20T16:36:43.056Z,29.30
2019-05-20T16:39:11.912Z,29.60
2019-05-20T16:41:42.237Z,29.80
2019-05-20T16:44:11.671Z,29.90
2019-05-20T16:46:40.505Z,30.00
2019-05-20T16:49:09.353Z,29.80
2019-05-20T16:51:38.224Z,29.70
2019-05-20T16:54:07.088Z,29.50
2019-05-20T16:56:35.944Z,29.10
2019-05-20T16:59:04.781Z,28.80
2019-05-20T17:01:45.484Z,28.60
2019-05-20T17:04:04.174Z,28.10
2019-05-20T17:06:33.004Z,27.90
2019-05-20T17:09:02.006Z,27.80
2019-05-20T17:11:31.004Z,27.70
2019-05-20T17:13:59.767Z,27.60
2019-05-20T17:16:28.590Z,27.50
2019-05-20T17:18:57.383Z,27.40
2019-05-20T17:21:26.232Z,27.30
2019-05-20T17:23:55.105Z,27.30
2019-05-20T17:26:23.941Z,27.20
2019-05-20T17:28:52.771Z,26.90
2019-05-20T17:31:23.181Z,26.90
2019-05-20T17:33:52.234Z,26.90
2019-05-20T17:36:21.794Z,26.80
2019-05-20T17:38:50.864Z,26.70
2019-05-20T17:41:19.701Z,26.70
2019-05-20T17:43:48.574Z,26.60
2019-05-20T17:46:17.576Z,26.60
2019-05-20T17:48:46.427Z,26.50
2019-05-20T17:51:16.745Z,26.50
2019-05-20T17:53:45.600Z,26.40
2019-05-20T17:56:14.511Z,26.40
2019-05-20T17:58:43.415Z,26.30
2019-05-20T18:01:15.866Z,26.30
2019-05-20T18:03:42.756Z,26.20
2019-05-20T18:06:11.794Z,26.10
2019-05-20T18:08:42.208Z,25.90
2019-05-20T18:11:11.044Z,25.80
2019-05-20T18:13:40.043Z,25.80
2019-05-20T18:16:08.900Z,25.70
2019-05-20T18:18:37.736Z,25.60
2019-05-20T18:21:06.672Z,25.50
2019-05-20T18:23:35.440Z,25.30
2019-05-20T18:26:04.272Z,25.30
2019-05-20T18:28:33.161Z,25.30
2019-05-20T18:31:02.043Z,25.20
2019-05-20T18:33:30.990Z,25.10
2019-05-20T18:36:04.521Z,24.80
2019-05-20T18:38:33.700Z,24.80
2019-05-20T18:41:02.541Z,24.80
2019-05-20T18:43:32.768Z,24.70
2019-05-20T18:46:01.612Z,24.60
2019-05-20T18:48:30.503Z,24.60
2019-05-20T18:50:59.454Z,24.50
2019-05-20T18:53:28.360Z,24.50
2019-05-20T18:55:57.173Z,24.30
2019-05-20T18:58:26.036Z,24.30
2019-05-20T19:00:54.875Z,24.30
2019-05-20T19:03:24.104Z,24.20
2019-05-20T19:05:53.387Z,24.10
2019-05-20T19:08:25.567Z,24.10
2019-05-20T19:13:18.049Z,24.00
2019-05-20T19:15:46.905Z,24.00
2019-05-20T19:18:15.811Z,24.10
2019-05-20T19:20:44.686Z,24.10
2019-05-20T19:23:13.425Z,24.10
2019-05-20T19:25:43.914Z,24.10
2019-05-20T19:28:12.789Z,24.00
2019-05-20T19:30:41.621Z,23.90
2019-05-20T19:33:13.536Z,23.90
2019-05-20T19:35:42.353Z,23.90
2019-05-20T19:38:13.745Z,23.80
2019-05-20T19:40:42.648Z,23.80
2019-05-20T19:43:13.364Z,23.70
2019-05-20T19:45:42.306Z,23.70
2019-05-20T19:48:11.834Z,23.60
2019-05-20T19:50:40.690Z,23.60
2019-05-20T19:53:09.628Z,23.50
2019-05-20T19:55:40.079Z,23.40
2019-05-20T19:58:08.841Z,23.40
2019-05-20T20:00:37.756Z,23.40
2019-05-20T20:03:06.691Z,23.40
2019-05-20T20:05:35.518Z,23.40
2019-05-20T20:08:04.443Z,23.30
2019-05-20T20:10:33.295Z,23.30
2019-05-20T20:13:20.998Z,23.20
2019-05-20T20:15:49.859Z,23.10
2019-05-20T20:18:18.682Z,23.10
2019-05-20T20:20:47.601Z,23.00
2019-05-20T20:23:16.524Z,22.90
2019-05-20T20:25:45.303Z,22.70
2019-05-20T20:28:14.153Z,22.70
2019-05-20T20:30:42.910Z,22.60
2019-05-20T20:33:12.062Z,22.50
2019-05-20T20:35:40.912Z,22.40
2019-05-20T20:38:09.760Z,22.30
2019-05-20T20:40:38.653Z,22.20
2019-05-20T20:43:12.658Z,22.10
2019-05-20T20:45:41.409Z,22.00
2019-05-20T20:48:10.375Z,21.70
2019-05-20T20:50:39.227Z,21.40
2019-05-20T20:53:07.996Z,21.20
2019-05-20T20:55:36.868Z,20.90
2019-05-20T20:58:05.733Z,20.60
2019-05-20T21:00:34.491Z,20.40
2019-05-20T21:03:03.248Z,20.10
2019-05-20T21:05:33.524Z,19.70
2019-05-20T21:08:02.337Z,19.40
2019-05-20T21:10:31.174Z,19.20
2019-05-20T21:12:59.996Z,19.10
2019-05-20T21:15:28.863Z,19.00
2019-05-20T21:17:58.815Z,19.00
2019-05-20T21:20:27.575Z,18.90
2019-05-20T21:22:56.399Z,19.00
2019-05-20T21:25:25.231Z,19.00
2019-05-20T21:27:54.062Z,19.00
2019-05-20T21:30:22.910Z,19.00
2019-05-20T21:32:51.766Z,19.00
2019-05-20T21:35:20.550Z,18.90
2019-05-20T21:37:49.389Z,19.00
2019-05-20T21:40:18.178Z,19.00
2019-05-20T21:42:47.353Z,19.00
2019-05-20T21:45:16.388Z,19.00
2019-05-20T21:47:45.216Z,18.90
2019-05-20T21:50:14.248Z,18.80
2019-05-20T21:52:43.125Z,18.70
2019-05-20T21:55:12.115Z,18.70
2019-05-20T21:57:40.879Z,18.70
2019-05-20T22:00:12.272Z,18.60
2019-05-20T22:02:41.166Z,18.60
2019-05-20T22:05:10.117Z,18.60
2019-05-20T22:07:38.949Z,18.50
2019-05-20T22:10:08.112Z,18.40
2019-05-20T22:12:36.900Z,18.30
2019-05-20T22:15:08.844Z,18.30
2019-05-20T22:17:37.684Z,18.20
2019-05-20T22:20:06.849Z,18.30
2019-05-20T22:22:38.232Z,18.30
2019-05-20T22:25:07.100Z,18.30
2019-05-20T22:27:35.967Z,18.30
2019-05-20T22:30:07.468Z,18.30
2019-05-20T22:32:36.315Z,18.30
2019-05-20T22:35:06.947Z,18.40
2019-05-20T22:37:35.730Z,18.40
2019-05-20T22:40:06.468Z,18.40
2019-05-20T22:42:35.341Z,18.50
2019-05-20T22:45:05.122Z,18.30
2019-05-20T22:47:33.993Z,18.30
2019-05-20T22:50:02.803Z,18.40
2019-05-20T22:52:31.666Z,18.40
2019-05-20T22:55:00.537Z,18.40
2019-05-20T22:57:29.313Z,18.40
2019-05-20T22:59:58.089Z,18.40
2019-05-20T23:02:26.851Z,18.40
2019-05-20T23:04:55.690Z,18.40
2019-05-20T23:07:24.563Z,18.50
2019-05-20T23:09:53.408Z,18.60
2019-05-20T23:12:22.238Z,18.60
2019-05-20T23:14:51.102Z,18.70
2019-05-20T23:17:19.979Z,18.80
2019-05-20T23:19:49.929Z,18.80
2019-05-20T23:22:18.777Z,18.80
2019-05-20T23:24:47.598Z,18.90
2019-05-20T23:27:16.408Z,18.90
2019-05-20T23:29:45.098Z,18.80
2019-05-20T23:32:13.922Z,18.90
2019-05-20T23:34:43.750Z,18.80
2019-05-20T23:37:12.581Z,18.90
2019-05-20T23:39:41.436Z,18.90
2019-05-20T23:42:10.272Z,18.90
2019-05-20T23:44:39.023Z,18.90
2019-05-20T23:47:07.855Z,18.90
2019-05-20T23:49:36.623Z,18.90
2019-05-20T23:52:05.447Z,18.90
2019-05-20T23:54:34.327Z,18.90
2019-05-20T23:57:03.281Z,18.80
2019-05-20T23:59:31.999Z,18.90
